Time;durP1;ratioP1;P1;durP2;ratioP2;P2;SDS_P1;SDS_P2;PMS_P1;PMS_P2;Temp;Humidity;BMP_temperature;BMP_pressure;BME280_temperature;BME280_humidity;BME280_pressure;Samples;Min_cycle;Max_cycle;Signal;HPM_P1;HPM_P2
2021/06/05 00:01:04;;;;;;;1.40;1.17;;;15.00;99.90;;;;;;5072336;28;20467;-70
2021/06/05 00:03:39;;;;;;;3.80;1.97;;;14.90;99.90;;;;;;5072383;28;21120;-70
2021/06/05 00:06:23;;;;;;;1.20;1.10;;;14.80;99.90;;;;;;5072430;28;20814;-70
2021/06/05 00:09:08;;;;;;;2.30;1.10;;;14.80;99.90;;;;;;5080995;28;20440;-71
2021/06/05 00:11:39;;;;;;;4.07;1.40;;;14.70;99.90;;;;;;5077005;28;20482;-70
2021/06/05 00:14:12;;;;;;;1.60;1.37;;;14.70;99.90;;;;;;5071818;28;20453;-70
2021/06/05 00:16:46;;;;;;;1.20;1.10;;;14.70;99.90;;;;;;5072112;28;21140;-69
2021/06/05 00:19:15;;;;;;;2.13;1.20;;;14.60;99.90;;;;;;5071987;28;20425;-70
2021/06/05 00:21:45;;;;;;;1.40;1.30;;;14.60;99.90;;;;;;5071981;28;20480;-71
2021/06/05 00:24:20;;;;;;;1.30;1.03;;;14.60;99.90;;;;;;5072033;28;20505;-72
2021/06/05 00:26:54;;;;;;;4.07;1.23;;;14.50;99.90;;;;;;5072200;28;20452;-70
2021/06/05 00:29:32;;;;;;;6.73;1.60;;;14.50;99.90;;;;;;5071911;28;20433;-71
2021/06/05 00:31:59;;;;;;;2.87;0.93;;;14.50;99.90;;;;;;5071986;28;20421;-71
2021/06/05 00:34:30;;;;;;;1.47;1.03;;;14.40;99.90;;;;;;5071986;28;20829;-70
2021/06/05 00:37:01;;;;;;;1.10;1.00;;;14.40;99.90;;;;;;5072154;28;20968;-70
2021/06/05 00:39:31;;;;;;;3.37;1.67;;;14.30;99.90;;;;;;5085924;28;20789;-70
2021/06/05 00:42:11;;;;;;;1.53;1.30;;;14.30;99.90;;;;;;5074174;28;20425;-70
2021/06/05 00:44:42;;;;;;;2.60;1.20;;;14.30;99.90;;;;;;5071497;28;20534;-70
2021/06/05 00:47:11;;;;;;;1.30;1.03;;;14.20;99.90;;;;;;5071832;28;20536;-70
2021/06/05 00:49:43;;;;;;;1.73;1.00;;;14.20;99.90;;;;;;5071609;28;20608;-71
2021/06/05 00:52:19;;;;;;;1.60;1.20;;;14.20;99.90;;;;;;5071747;28;20935;-71
2021/06/05 00:54:49;;;;;;;1.70;1.10;;;14.10;99.90;;;;;;5071749;28;20468;-71
2021/06/05 00:57:25;;;;;;;7.30;1.10;;;14.10;99.90;;;;;;5071983;28;20465;-71
2021/06/05 01:00:04;;;;;;;1.00;0.90;;;14.20;99.90;;;;;;5071336;28;20429;-71
2021/06/05 01:02:37;;;;;;;2.27;1.40;;;14.10;99.90;;;;;;5071710;28;20425;-70
2021/06/05 01:05:13;;;;;;;2.60;1.20;;;14.10;99.90;;;;;;5071611;28;20437;-71
2021/06/05 01:07:45;;;;;;;2.37;1.50;;;14.00;99.90;;;;;;5071635;28;20489;-71
2021/06/05 01:10:24;;;;;;;2.80;1.03;;;14.00;99.90;;;;;;5087927;28;20417;-71
2021/06/05 01:13:15;;;;;;;2.13;1.07;;;13.90;99.90;;;;;;5071495;28;20441;-71
2021/06/05 01:15:47;;;;;;;2.17;1.37;;;13.90;99.90;;;;;;5071203;28;20517;-70
2021/06/05 01:18:29;;;;;;;2.30;1.00;;;13.90;99.90;;;;;;5071353;28;20942;-71
2021/06/05 01:21:23;;;;;;;1.67;1.10;;;13.90;99.90;;;;;;5071617;28;20776;-71
2021/06/05 01:24:11;;;;;;;1.80;1.17;;;13.90;99.90;;;;;;5075254;28;20464;-70
2021/06/05 01:26:46;;;;;;;2.17;1.00;;;13.90;99.90;;;;;;5075286;28;20487;-70
2021/06/05 01:29:20;;;;;;;1.10;1.00;;;13.90;99.90;;;;;;5075166;28;20436;-70
2021/06/05 01:32:02;;;;;;;1.20;0.90;;;13.90;99.90;;;;;;5075282;28;21008;-70
2021/06/05 01:34:37;;;;;;;1.50;1.03;;;13.90;99.90;;;;;;5075338;28;20420;-70
2021/06/05 01:37:10;;;;;;;3.50;1.20;;;13.90;99.90;;;;;;5075008;28;20459;-70
2021/06/05 01:42:50;;;;;;;1.20;1.10;;;13.90;99.90;;;;;;5064623;28;20968;-71
2021/06/05 01:45:21;;;;;;;2.63;1.10;;;13.90;99.90;;;;;;5074839;28;20569;-71
2021/06/05 01:47:48;;;;;;;1.40;1.30;;;13.90;99.90;;;;;;5074857;28;20475;-71
2021/06/05 01:50:17;;;;;;;2.10;1.07;;;13.90;99.90;;;;;;5074741;28;20783;-70
2021/06/05 01:52:44;;;;;;;3.70;2.40;;;13.90;99.90;;;;;;5074834;28;20431;-70
2021/06/05 01:55:16;;;;;;;2.60;1.20;;;13.90;99.90;;;;;;5074724;28;20443;-71
2021/06/05 01:57:49;;;;;;;4.00;3.17;;;13.80;99.90;;;;;;5074665;28;20465;-70
2021/06/05 02:00:20;;;;;;;3.43;1.13;;;13.80;99.90;;;;;;5074477;28;20506;-70
2021/06/05 02:02:47;;;;;;;1.87;1.50;;;13.80;99.90;;;;;;5075237;28;20928;-72
2021/06/05 02:05:14;;;;;;;7.03;1.37;;;13.80;99.90;;;;;;5074679;28;20418;-71
2021/06/05 02:07:40;;;;;;;1.83;1.30;;;13.80;99.90;;;;;;5074301;28;20472;-71
2021/06/05 02:10:11;;;;;;;2.70;1.93;;;13.80;99.90;;;;;;5091466;28;20437;-71
2021/06/05 02:12:38;;;;;;;1.50;1.10;;;13.80;99.90;;;;;;5074741;28;20425;-71
2021/06/05 02:15:12;;;;;;;1.73;1.20;;;13.80;99.90;;;;;;5074315;28;20435;-71
2021/06/05 02:17:41;;;;;;;4.10;1.20;;;13.80;99.90;;;;;;5074355;28;20557;-71
2021/06/05 02:20:18;;;;;;;2.70;1.33;;;13.80;99.90;;;;;;5074371;28;20433;-71
2021/06/05 02:22:46;;;;;;;3.63;1.00;;;13.80;99.90;;;;;;5074271;28;20425;-71
2021/06/05 02:25:15;;;;;;;1.40;1.30;;;13.80;99.90;;;;;;5074257;28;20441;-71
2021/06/05 02:27:43;;;;;;;10.10;1.40;;;13.80;99.90;;;;;;5074224;28;20467;-72
2021/06/05 02:30:16;;;;;;;1.30;1.20;;;13.80;99.90;;;;;;5073733;28;20441;-71
2021/06/05 02:32:43;;;;;;;3.97;1.33;;;13.80;99.90;;;;;;5073276;28;20448;-71
2021/06/05 02:35:16;;;;;;;3.57;1.60;;;13.90;99.90;;;;;;5074119;28;20440;-72
2021/06/05 02:37:46;;;;;;;2.00;1.20;;;13.80;99.90;;;;;;5073987;28;20551;-71
2021/06/05 02:40:17;;;;;;;1.90;1.30;;;13.90;99.90;;;;;;5090363;28;20426;-71
2021/06/05 02:42:44;;;;;;;1.97;1.30;;;13.90;99.90;;;;;;5073904;28;20432;-72
2021/06/05 02:45:18;;;;;;;1.20;0.90;;;13.90;99.90;;;;;;5073624;28;20505;-72
2021/06/05 02:47:53;;;;;;;3.07;1.40;;;13.90;99.90;;;;;;5073903;28;20952;-71
2021/06/05 02:50:21;;;;;;;1.53;1.27;;;13.90;99.90;;;;;;5073677;28;20447;-70
2021/06/05 02:52:48;;;;;;;1.83;1.23;;;13.80;99.90;;;;;;5073688;28;20914;-71
2021/06/05 02:55:17;;;;;;;1.53;1.30;;;13.80;99.90;;;;;;5073701;28;20446;-71
2021/06/05 02:57:45;;;;;;;4.50;1.63;;;13.70;99.90;;;;;;5073534;28;20447;-71
2021/06/05 03:00:16;;;;;;;2.47;1.53;;;13.70;99.90;;;;;;5073224;28;20421;-70
2021/06/05 03:02:43;;;;;;;1.27;1.07;;;13.70;99.90;;;;;;5073601;28;20432;-71
2021/06/05 03:05:11;;;;;;;4.27;1.47;;;13.70;99.90;;;;;;5073548;28;20456;-70
2021/06/05 03:07:38;;;;;;;2.00;1.60;;;13.80;99.90;;;;;;5073402;28;20610;-70
2021/06/05 03:10:06;;;;;;;1.93;1.37;;;13.80;99.90;;;;;;5090254;28;20428;-71
2021/06/05 03:12:33;;;;;;;1.37;1.13;;;13.80;99.90;;;;;;5073343;28;20915;-71
2021/06/05 03:15:00;;;;;;;2.57;1.47;;;13.80;99.90;;;;;;5073089;28;20833;-72
2021/06/05 03:17:28;;;;;;;1.30;1.20;;;13.80;99.90;;;;;;5073237;28;20467;-70
2021/06/05 03:19:55;;;;;;;1.60;1.00;;;13.90;99.90;;;;;;5073209;28;20543;-71
2021/06/05 03:22:22;;;;;;;1.57;1.47;;;13.80;99.90;;;;;;5073189;28;20829;-71
2021/06/05 03:24:49;;;;;;;1.60;1.20;;;13.70;99.90;;;;;;5072897;28;20480;-71
2021/06/05 03:27:15;;;;;;;1.60;1.30;;;13.70;99.90;;;;;;5073008;28;21171;-70
2021/06/05 03:29:42;;;;;;;1.53;1.43;;;13.70;99.90;;;;;;5072562;28;20452;-71
2021/06/05 03:32:09;;;;;;;1.50;1.40;;;13.70;99.90;;;;;;5073253;28;20490;-71
2021/06/05 03:34:37;;;;;;;3.20;1.43;;;13.70;99.90;;;;;;5072943;28;20479;-71
2021/06/05 03:37:07;;;;;;;1.17;1.07;;;13.80;99.90;;;;;;5072749;28;20494;-72
2021/06/05 03:39:34;;;;;;;2.93;1.20;;;13.80;99.90;;;;;;5087584;28;20434;-71
2021/06/05 03:42:01;;;;;;;2.03;1.27;;;13.70;99.90;;;;;;5074640;28;20440;-71
2021/06/05 03:44:28;;;;;;;6.30;2.20;;;13.70;99.90;;;;;;5072356;28;20477;-71
2021/06/05 03:46:54;;;;;;;4.03;1.43;;;13.70;99.90;;;;;;5072695;28;20863;-72
2021/06/05 03:49:21;;;;;;;1.53;1.30;;;13.70;99.90;;;;;;5072375;28;20441;-70
2021/06/05 03:51:49;;;;;;;4.00;2.20;;;13.70;99.90;;;;;;5072472;28;20432;-71
2021/06/05 03:54:16;;;;;;;2.00;1.60;;;13.70;99.90;;;;;;5072578;28;20429;-71
2021/06/05 03:56:43;;;;;;;2.23;1.60;;;13.70;99.90;;;;;;5072450;28;20452;-73
2021/06/05 03:59:10;;;;;;;3.30;1.87;;;13.60;99.90;;;;;;5072353;28;20813;-71
2021/06/05 04:01:38;;;;;;;1.93;1.47;;;13.60;99.90;;;;;;5072186;28;20441;-71
2021/06/05 04:04:05;;;;;;;3.03;1.80;;;13.70;99.90;;;;;;5072244;28;20464;-72
2021/06/05 04:06:32;;;;;;;1.77;1.20;;;13.70;99.90;;;;;;5072099;28;20490;-71
2021/06/05 04:09:00;;;;;;;2.60;1.67;;;13.70;99.90;;;;;;5082068;28;20426;-72
2021/06/05 04:11:29;;;;;;;2.70;1.50;;;13.70;99.90;;;;;;5078953;28;20963;-72
2021/06/05 04:13:56;;;;;;;3.80;1.90;;;13.70;99.90;;;;;;5072219;28;20433;-71
2021/06/05 04:16:23;;;;;;;1.73;1.43;;;13.80;99.90;;;;;;5071920;28;20426;-71
2021/06/05 04:18:51;;;;;;;1.60;1.50;;;13.80;99.90;;;;;;5071968;28;20441;-71
2021/06/05 04:21:20;;;;;;;4.33;1.70;;;13.80;99.90;;;;;;5072176;28;20432;-72
2021/06/05 04:23:47;;;;;;;1.53;1.43;;;13.80;99.90;;;;;;5072092;28;20473;-71
2021/06/05 04:26:16;;;;;;;2.03;1.83;;;13.80;99.90;;;;;;5072134;28;20424;-72
2021/06/05 04:28:42;;;;;;;2.93;1.53;;;13.80;99.90;;;;;;5071766;28;20467;-69
2021/06/05 04:31:11;;;;;;;2.03;1.63;;;13.80;99.90;;;;;;5071620;28;20502;-69
2021/06/05 04:33:38;;;;;;;3.40;1.57;;;13.90;99.90;;;;;;5079513;28;20447;-69
2021/06/05 04:36:08;;;;;;;1.50;1.20;;;13.80;99.90;;;;;;5092050;28;20466;-69
2021/06/05 04:38:35;;;;;;;2.30;1.20;;;13.80;99.90;;;;;;5091865;28;20460;-69
2021/06/05 04:41:03;;;;;;;2.30;1.57;;;13.90;99.90;;;;;;5092150;28;20443;-69
2021/06/05 04:43:31;;;;;;;2.20;1.50;;;13.90;99.90;;;;;;5092044;28;20886;-69
2021/06/05 04:45:58;;;;;;;2.90;1.43;;;13.90;99.90;;;;;;5090918;28;20433;-69
2021/06/05 04:48:25;;;;;;;8.57;1.50;;;14.00;99.90;;;;;;5078486;28;20445;-69
2021/06/05 04:50:52;;;;;;;2.47;1.60;;;14.10;99.90;;;;;;5072174;28;20434;-69
2021/06/05 04:53:20;;;;;;;1.40;1.30;;;14.00;99.90;;;;;;5071808;28;20429;-69
2021/06/05 04:55:47;;;;;;;1.97;1.60;;;14.10;99.90;;;;;;5071775;28;20445;-70
2021/06/05 04:58:13;;;;;;;1.30;1.20;;;14.10;99.90;;;;;;5075541;28;20471;-68
2021/06/05 05:00:46;;;;;;;1.93;1.10;;;14.10;99.90;;;;;;5075531;28;20514;-69
2021/06/05 05:03:15;;;;;;;1.53;1.20;;;14.10;99.90;;;;;;5075733;28;20489;-69
2021/06/05 05:05:42;;;;;;;1.30;1.20;;;14.20;99.90;;;;;;5076019;28;20437;-69
2021/06/05 05:08:12;;;;;;;1.27;1.10;;;14.10;99.90;;;;;;5075950;28;20444;-69
2021/06/05 05:10:46;;;;;;;1.10;0.90;;;14.20;99.90;;;;;;5076070;28;20932;-69
2021/06/05 05:13:16;;;;;;;2.47;1.10;;;14.20;99.90;;;;;;5075661;28;20798;-69
2021/06/05 05:15:45;;;;;;;1.70;1.03;;;14.30;99.90;;;;;;5087931;28;20443;-69
2021/06/05 05:18:13;;;;;;;3.23;1.10;;;14.30;99.90;;;;;;5084015;28;20449;-69
2021/06/05 05:20:42;;;;;;;1.40;1.10;;;14.40;99.90;;;;;;5075791;28;20794;-70
2021/06/05 05:23:12;;;;;;;2.03;1.70;;;14.40;99.90;;;;;;5075417;28;20571;-69
2021/06/05 05:25:41;;;;;;;3.30;1.10;;;14.40;99.90;;;;;;5075307;28;20433;-69
2021/06/05 05:28:08;;;;;;;1.70;1.13;;;14.40;99.90;;;;;;5078362;28;21192;-69
2021/06/05 05:30:37;;;;;;;1.63;1.20;;;14.50;99.90;;;;;;5088787;28;20463;-69
2021/06/05 05:33:06;;;;;;;2.23;1.47;;;14.50;99.90;;;;;;5075338;28;20631;-69
2021/06/05 05:35:33;;;;;;;1.53;1.43;;;14.50;99.90;;;;;;5075173;28;20444;-69
2021/06/05 05:38:01;;;;;;;4.50;1.20;;;14.60;99.90;;;;;;5077590;28;20468;-69
2021/06/05 05:40:28;;;;;;;1.93;1.10;;;14.60;99.90;;;;;;5090129;28;20456;-69
2021/06/05 05:42:55;;;;;;;1.53;1.20;;;14.60;99.90;;;;;;5075139;28;20934;-69
2021/06/05 05:45:23;;;;;;;1.50;1.40;;;14.60;99.90;;;;;;5074725;28;20484;-69
2021/06/05 05:47:50;;;;;;;5.67;1.30;;;14.70;99.90;;;;;;5074966;28;20457;-69
2021/06/05 05:50:21;;;;;;;1.70;1.10;;;14.70;99.90;;;;;;5074660;28;20451;-69
2021/06/05 05:52:47;;;;;;;1.37;1.10;;;14.70;99.90;;;;;;5074768;28;20438;-69
2021/06/05 05:55:15;;;;;;;2.00;1.80;;;14.70;99.90;;;;;;5074879;28;20436;-69
2021/06/05 05:57:42;;;;;;;1.57;1.33;;;14.70;99.90;;;;;;5074810;28;20450;-69
2021/06/05 06:00:12;;;;;;;1.67;1.40;;;14.70;99.90;;;;;;5074530;28;20482;-69
2021/06/05 06:02:39;;;;;;;3.07;1.63;;;14.60;99.90;;;;;;5074761;28;20433;-69
2021/06/05 06:05:07;;;;;;;2.93;1.60;;;14.60;99.90;;;;;;5074648;28;20838;-69
2021/06/05 06:07:35;;;;;;;4.33;2.30;;;14.60;99.90;;;;;;5074550;28;20499;-69
2021/06/05 06:10:03;;;;;;;3.03;2.60;;;14.70;99.90;;;;;;5092013;28;20508;-70
2021/06/05 06:12:30;;;;;;;2.47;1.80;;;14.60;99.90;;;;;;5074562;28;20433;-69
2021/06/05 06:14:57;;;;;;;3.90;1.60;;;14.60;99.90;;;;;;5074303;28;20436;-70
2021/06/05 06:17:23;;;;;;;1.80;1.70;;;14.60;99.90;;;;;;5074374;28;20474;-69
2021/06/05 06:19:50;;;;;;;3.47;1.80;;;14.70;99.90;;;;;;5074114;28;20446;-69
2021/06/05 06:22:17;;;;;;;2.27;1.63;;;14.70;99.90;;;;;;5074368;28;20441;-69
2021/06/05 06:24:45;;;;;;;2.27;1.73;;;14.80;99.90;;;;;;5074259;28;20472;-69
2021/06/05 06:27:12;;;;;;;2.30;2.10;;;14.80;99.90;;;;;;5074173;28;20457;-69
2021/06/05 06:29:40;;;;;;;2.37;1.80;;;14.80;99.90;;;;;;5073653;28;20654;-69
2021/06/05 06:32:07;;;;;;;2.23;2.03;;;14.80;99.90;;;;;;5074103;28;20441;-69
2021/06/05 06:34:35;;;;;;;2.57;1.90;;;14.80;99.90;;;;;;5073950;28;20463;-70
2021/06/05 06:37:04;;;;;;;2.77;1.53;;;14.80;99.90;;;;;;5074026;28;20503;-70
2021/06/05 06:39:30;;;;;;;2.43;1.50;;;14.80;99.90;;;;;;5088738;28;20448;-69
2021/06/05 06:41:59;;;;;;;3.67;1.93;;;14.80;99.90;;;;;;5094163;28;20435;-69
2021/06/05 06:44:27;;;;;;;1.87;1.60;;;14.90;99.90;;;;;;5093775;28;20468;-69
2021/06/05 06:46:54;;;;;;;1.87;1.77;;;14.90;99.90;;;;;;5094242;28;20986;-70
2021/06/05 06:49:22;;;;;;;4.60;1.57;;;15.00;99.90;;;;;;5094090;28;20843;-69
2021/06/05 06:51:49;;;;;;;1.57;1.43;;;15.00;99.90;;;;;;5094092;28;20439;-70
2021/06/05 06:54:16;;;;;;;2.40;1.57;;;15.00;99.90;;;;;;5094049;28;20446;-70
2021/06/05 06:56:44;;;;;;;2.40;1.40;;;15.10;99.90;;;;;;5093956;28;20445;-69
2021/06/05 06:59:12;;;;;;;2.00;1.80;;;15.10;99.90;;;;;;5093420;28;20468;-69
2021/06/05 07:01:39;;;;;;;1.97;1.60;;;15.20;99.90;;;;;;5093800;28;20775;-69
2021/06/05 07:04:06;;;;;;;5.17;2.00;;;15.20;99.90;;;;;;5093693;28;20480;-69
2021/06/05 07:06:34;;;;;;;1.40;1.30;;;15.20;99.90;;;;;;5093619;28;20436;-69
2021/06/05 07:09:02;;;;;;;3.00;1.40;;;15.20;99.90;;;;;;5093286;28;20452;-69
2021/06/05 07:11:31;;;;;;;1.50;1.27;;;15.30;99.90;;;;;;5080056;28;20445;-70
2021/06/05 07:13:58;;;;;;;3.27;1.87;;;15.30;99.90;;;;;;5072758;28;20435;-69
2021/06/05 07:16:32;;;;;;;1.77;1.40;;;15.30;99.90;;;;;;5073455;28;20552;-70
2021/06/05 07:19:00;;;;;;;1.40;1.30;;;15.30;99.90;;;;;;5072600;28;20487;-69
2021/06/05 07:21:27;;;;;;;2.57;1.50;;;15.30;99.90;;;;;;5073203;28;20457;-69
2021/06/05 07:23:53;;;;;;;1.77;1.17;;;15.40;99.90;;;;;;5073080;28;20563;-69
2021/06/05 07:26:24;;;;;;;2.37;1.77;;;15.50;99.90;;;;;;5073053;28;20429;-69
2021/06/05 07:28:53;;;;;;;1.90;1.30;;;15.50;99.90;;;;;;5082717;28;20455;-69
2021/06/05 07:31:22;;;;;;;3.50;1.67;;;15.30;99.90;;;;;;5080519;28;20442;-69
2021/06/05 07:33:51;;;;;;;1.80;1.40;;;15.20;99.90;;;;;;5072971;28;20448;-69
2021/06/05 07:36:21;;;;;;;2.00;1.40;;;15.30;99.90;;;;;;5073049;28;20871;-69
2021/06/05 07:38:48;;;;;;;1.50;1.40;;;15.30;99.90;;;;;;5072705;28;20447;-69
2021/06/05 07:41:15;;;;;;;1.47;1.37;;;15.30;99.90;;;;;;5072715;28;20502;-69
2021/06/05 07:43:42;;;;;;;3.70;1.50;;;15.20;99.90;;;;;;5072474;28;20469;-69
2021/06/05 07:46:08;;;;;;;1.97;1.43;;;15.20;99.90;;;;;;5072643;28;20443;-69
2021/06/05 07:48:36;;;;;;;2.13;1.93;;;15.20;99.90;;;;;;5072444;28;20961;-69
2021/06/05 07:51:06;;;;;;;1.90;1.80;;;15.10;99.90;;;;;;5072613;28;20433;-69
2021/06/05 07:53:33;;;;;;;2.10;1.80;;;15.20;99.90;;;;;;5072686;28;20422;-69
2021/06/05 07:56:00;;;;;;;2.30;2.00;;;15.20;99.90;;;;;;5072516;28;20442;-69
2021/06/05 07:58:27;;;;;;;1.93;1.77;;;15.20;99.90;;;;;;5079218;28;20452;-70
2021/06/05 08:01:04;;;;;;;2.67;2.00;;;15.30;99.90;;;;;;5083648;28;20491;-69
2021/06/05 08:03:31;;;;;;;1.50;1.40;;;15.30;99.90;;;;;;5072254;28;20426;-69
2021/06/05 08:06:08;;;;;;;2.27;1.87;;;15.30;99.90;;;;;;5072335;28;20449;-70
2021/06/05 08:08:37;;;;;;;3.30;1.80;;;15.40;99.90;;;;;;5072366;28;20456;-70
2021/06/05 08:11:03;;;;;;;2.37;2.10;;;15.40;99.90;;;;;;5072418;28;20432;-70
2021/06/05 08:13:31;;;;;;;3.13;2.33;;;15.50;99.90;;;;;;5072123;28;20432;-70
2021/06/05 08:15:59;;;;;;;2.67;1.97;;;15.50;99.90;;;;;;5072399;28;20937;-69
2021/06/05 08:18:26;;;;;;;3.40;2.87;;;15.40;99.90;;;;;;5071844;28;20472;-70
2021/06/05 08:20:56;;;;;;;2.83;2.40;;;15.40;99.90;;;;;;5072047;28;20437;-70
2021/06/05 08:23:25;;;;;;;2.40;2.00;;;15.50;99.90;;;;;;5072077;28;20967;-70
2021/06/05 08:25:53;;;;;;;5.77;2.50;;;15.40;99.90;;;;;;5079873;28;20905;-70
2021/06/05 08:28:25;;;;;;;2.07;1.87;;;15.40;99.90;;;;;;5091930;28;20465;-69
2021/06/05 08:30:54;;;;;;;3.53;2.40;;;15.40;99.90;;;;;;5091261;28;20437;-69
2021/06/05 08:33:21;;;;;;;2.03;1.60;;;15.40;99.90;;;;;;5091954;28;20433;-70
2021/06/05 08:35:48;;;;;;;3.87;2.17;;;15.40;99.90;;;;;;5092308;28;20511;-69
2021/06/05 08:38:17;;;;;;;3.37;2.10;;;15.40;99.90;;;;;;5091781;28;20451;-69
2021/06/05 08:40:48;;;;;;;2.57;2.37;;;15.40;99.90;;;;;;5091896;28;20448;-69
2021/06/05 08:43:25;;;;;;;2.53;2.10;;;15.40;99.90;;;;;;5091429;28;20454;-70
2021/06/05 08:45:53;;;;;;;4.07;2.20;;;15.30;99.90;;;;;;5083361;28;20436;-69
2021/06/05 08:48:22;;;;;;;3.57;2.23;;;15.20;99.90;;;;;;5071687;28;20471;-69
2021/06/05 08:50:49;;;;;;;4.07;1.97;;;15.10;99.90;;;;;;5071888;28;20433;-70
2021/06/05 08:53:20;;;;;;;4.40;2.60;;;15.10;99.90;;;;;;5071906;28;20433;-70
2021/06/05 08:55:54;;;;;;;3.73;3.17;;;15.10;99.90;;;;;;5071645;28;20426;-70
2021/06/05 08:58:31;;;;;;;5.50;3.53;;;15.20;99.90;;;;;;5071421;28;20457;-70
2021/06/05 09:01:04;;;;;;;3.60;2.67;;;15.20;99.90;;;;;;5071810;28;20420;-70
2021/06/05 09:03:33;;;;;;;2.87;2.57;;;15.20;99.90;;;;;;5071602;28;20450;-70
2021/06/05 09:06:05;;;;;;;3.93;3.13;;;15.10;99.90;;;;;;5071608;28;20451;-70
2021/06/05 09:08:32;;;;;;;4.23;3.80;;;15.10;99.90;;;;;;5071111;28;20526;-70
2021/06/05 09:11:04;;;;;;;3.50;3.20;;;15.10;99.90;;;;;;5071412;28;20512;-70
2021/06/05 09:13:33;;;;;;;4.33;3.50;;;15.10;99.90;;;;;;5079058;28;20437;-70
2021/06/05 09:16:27;;;;;;;7.07;3.40;;;15.10;99.90;;;;;;5082015;28;20934;-70
2021/06/05 09:19:00;;;;;;;3.30;2.90;;;15.10;99.90;;;;;;5071658;28;20429;-70
2021/06/05 09:21:30;;;;;;;5.60;3.73;;;15.20;99.90;;;;;;5071459;28;20426;-70
2021/06/05 09:24:13;;;;;;;6.63;4.37;;;15.10;99.90;;;;;;5071160;28;20465;-70
2021/06/05 09:26:43;;;;;;;4.70;4.30;;;15.20;99.90;;;;;;5071239;28;20445;-70
2021/06/05 09:29:15;;;;;;;4.23;3.83;;;15.10;99.90;;;;;;5071273;28;20419;-70
2021/06/05 09:31:58;;;;;;;5.23;4.30;;;15.20;99.90;;;;;;5071220;28;20461;-70
2021/06/05 09:34:31;;;;;;;4.77;4.27;;;15.30;99.90;;;;;;5071486;28;20933;-70
2021/06/05 09:36:58;;;;;;;8.43;4.87;;;15.30;99.90;;;;;;5071463;28;20442;-70
2021/06/05 09:39:41;;;;;;;5.00;4.30;;;15.30;99.90;;;;;;5070978;28;20438;-70
2021/06/05 09:42:11;;;;;;;5.07;4.60;;;15.20;99.90;;;;;;5071412;28;20430;-70
2021/06/05 09:44:48;;;;;;;4.70;4.20;;;15.20;99.90;;;;;;5091528;28;20465;-70
2021/06/05 09:47:27;;;;;;;6.40;5.17;;;15.30;99.90;;;;;;5075014;28;20450;-71
2021/06/05 09:49:58;;;;;;;5.00;4.60;;;15.20;99.90;;;;;;5074686;28;20433;-69
2021/06/05 09:52:33;;;;;;;6.00;4.70;;;15.30;99.90;;;;;;5075231;28;20433;-70
2021/06/05 09:55:08;;;;;;;8.70;4.73;;;15.30;99.90;;;;;;5074969;28;20512;-70
2021/06/05 09:57:40;;;;;;;5.17;4.77;;;15.30;99.90;;;;;;5074434;28;20445;-70
2021/06/05 10:00:15;;;;;;;7.53;6.03;;;15.30;99.90;;;;;;5074592;28;20934;-70
2021/06/05 10:02:44;;;;;;;5.60;5.07;;;15.30;99.90;;;;;;5074447;28;20444;-70
2021/06/05 10:05:28;;;;;;;6.83;4.30;;;15.50;99.90;;;;;;5074615;28;21007;-71
2021/06/05 10:07:56;;;;;;;5.57;5.07;;;15.40;99.90;;;;;;5074609;28;20468;-70
2021/06/05 10:10:33;;;;;;;6.40;5.20;;;15.40;99.90;;;;;;5074468;28;20902;-70
2021/06/05 10:13:04;;;;;;;6.40;5.27;;;15.60;99.90;;;;;;5077027;28;20828;-70
2021/06/05 10:15:39;;;;;;;6.23;5.47;;;15.60;99.90;;;;;;5088293;28;20425;-70
2021/06/05 10:18:13;;;;;;;8.63;5.03;;;15.60;99.90;;;;;;5075635;28;20445;-70
2021/06/05 10:20:46;;;;;;;6.93;4.47;;;15.60;99.90;;;;;;5074296;28;20464;-70
2021/06/05 10:23:17;;;;;;;5.70;4.87;;;15.70;99.90;;;;;;5074657;28;20502;-70
2021/06/05 10:25:47;;;;;;;6.80;5.20;;;15.70;99.90;;;;;;5073739;28;20552;-70
2021/06/05 10:28:19;;;;;;;5.37;4.67;;;15.70;99.90;;;;;;5074304;28;20472;-70
2021/06/05 10:30:51;;;;;;;5.97;5.00;;;15.80;99.90;;;;;;5074012;28;20444;-70
2021/06/05 10:33:33;;;;;;;9.97;5.40;;;15.80;99.90;;;;;;5074233;28;20436;-70
2021/06/05 10:36:02;;;;;;;4.50;4.10;;;15.80;99.90;;;;;;5074098;28;20434;-70
2021/06/05 10:38:38;;;;;;;6.30;4.97;;;15.80;99.90;;;;;;5073661;28;20464;-70
2021/06/05 10:41:05;;;;;;;5.00;4.37;;;15.90;99.90;;;;;;5073905;28;20463;-70
2021/06/05 10:43:32;;;;;;;5.57;4.20;;;16.00;99.90;;;;;;5079829;28;20443;-70
2021/06/05 10:46:16;;;;;;;4.63;4.23;;;16.10;99.90;;;;;;5093892;28;20477;-70
2021/06/05 10:48:44;;;;;;;5.77;4.77;;;16.10;99.90;;;;;;5093778;28;20441;-70
2021/06/05 10:51:18;;;;;;;5.60;4.00;;;16.20;99.90;;;;;;5093857;28;20445;-70
2021/06/05 10:53:52;;;;;;;4.23;3.83;;;16.20;99.90;;;;;;5092445;28;20441;-70
2021/06/05 10:56:30;;;;;;;4.87;4.17;;;16.30;99.90;;;;;;5086164;28;20429;-70
2021/06/05 10:58:59;;;;;;;7.00;4.27;;;16.30;99.90;;;;;;5093628;28;20447;-70
2021/06/05 11:01:49;;;;;;;4.30;3.53;;;16.50;99.90;;;;;;5093838;28;20443;-70
2021/06/05 11:04:46;;;;;;;5.07;3.57;;;16.60;99.90;;;;;;5093737;28;20468;-70
2021/06/05 11:07:24;;;;;;;3.93;3.63;;;16.60;99.90;;;;;;5093632;28;20444;-70
2021/06/05 11:09:52;;;;;;;4.17;3.73;;;16.60;99.90;;;;;;5093269;28;20428;-70
2021/06/05 11:12:52;;;;;;;3.90;3.60;;;16.50;99.90;;;;;;5093661;28;20421;-70
2021/06/05 11:16:00;;;;;;;6.10;4.30;;;16.50;99.90;;;;;;5093595;28;20437;-70
2021/06/05 11:18:34;;;;;;;6.57;4.53;;;16.50;99.90;;;;;;5093304;28;20453;-70
2021/06/05 11:21:38;;;;;;;4.50;3.73;;;16.50;99.90;;;;;;5093438;28;20447;-70
2021/06/05 11:24:22;;;;;;;6.77;5.03;;;16.40;99.90;;;;;;5092870;28;20480;-70
2021/06/05 11:26:52;;;;;;;5.47;4.07;;;16.50;99.90;;;;;;5076544;28;20468;-70
2021/06/05 11:29:54;;;;;;;4.63;3.67;;;16.60;99.90;;;;;;5073848;28;20426;-70
2021/06/05 11:32:48;;;;;;;7.57;4.63;;;16.60;99.90;;;;;;5085571;28;20413;-70
2021/06/05 11:35:37;;;;;;;5.60;4.30;;;16.50;99.90;;;;;;5093554;28;20914;-70
2021/06/05 11:38:05;;;;;;;3.77;3.27;;;16.60;99.90;;;;;;5091995;28;20502;-70
2021/06/05 11:40:58;;;;;;;3.97;3.10;;;16.70;99.90;;;;;;5078491;28;20442;-70
2021/06/05 11:43:52;;;;;;;4.17;3.77;;;16.60;99.90;;;;;;5072807;28;20993;-70
2021/06/05 11:46:46;;;;;;;4.50;4.07;;;16.70;99.90;;;;;;5072840;28;20426;-69
2021/06/05 11:49:51;;;;;;;3.93;3.53;;;16.70;99.90;;;;;;5072428;28;20473;-69
2021/06/05 11:52:50;;;;;;;3.47;3.17;;;16.70;99.90;;;;;;5072819;28;20436;-70
2021/06/05 11:55:36;;;;;;;5.27;3.27;;;16.70;99.90;;;;;;5072498;28;20437;-70
2021/06/05 11:58:12;;;;;;;5.53;3.97;;;16.70;99.90;;;;;;5069877;28;20958;-69
2021/06/05 12:00:43;;;;;;;4.70;3.40;;;16.70;99.90;;;;;;5072556;28;20501;-70
2021/06/05 12:03:23;;;;;;;3.30;3.00;;;16.60;99.90;;;;;;5075864;28;20952;-69
2021/06/05 12:05:50;;;;;;;3.70;2.90;;;16.40;99.90;;;;;;5092358;28;20469;-70
2021/06/05 12:08:22;;;;;;;3.80;2.70;;;16.30;99.90;;;;;;5092002;28;20457;-70
2021/06/05 12:10:51;;;;;;;3.07;2.87;;;16.40;99.90;;;;;;5092558;28;20785;-70
2021/06/05 12:13:26;;;;;;;4.27;3.20;;;16.40;99.90;;;;;;5092583;28;20432;-70
2021/06/05 12:15:55;;;;;;;2.93;2.60;;;16.40;99.90;;;;;;5092763;28;20427;-70
2021/06/05 12:18:25;;;;;;;3.60;2.80;;;16.40;99.90;;;;;;5092217;28;20440;-69
2021/06/05 12:20:59;;;;;;;3.97;3.57;;;16.40;99.90;;;;;;5092525;28;20437;-70
2021/06/05 12:23:30;;;;;;;3.37;3.03;;;16.40;99.90;;;;;;5092085;28;20925;-69
2021/06/05 12:26:07;;;;;;;4.63;2.70;;;16.40;99.90;;;;;;5091106;28;20986;-69
2021/06/05 12:28:36;;;;;;;4.10;2.80;;;16.30;99.90;;;;;;5077431;28;20460;-71
2021/06/05 12:31:17;;;;;;;3.47;3.17;;;16.20;99.90;;;;;;5071888;28;20439;-70
2021/06/05 12:33:54;;;;;;;4.50;2.50;;;16.20;99.90;;;;;;5072016;28;20464;-70
2021/06/05 12:36:24;;;;;;;2.13;2.03;;;16.00;99.90;;;;;;5071984;28;20429;-70
2021/06/05 12:38:52;;;;;;;1.60;1.50;;;15.80;99.90;;;;;;5071604;28;20524;-69
2021/06/05 12:41:23;;;;;;;2.87;1.83;;;15.60;99.90;;;;;;5071661;28;20445;-70
2021/06/05 12:43:51;;;;;;;2.30;2.10;;;15.40;99.90;;;;;;5071942;28;20436;-70
2021/06/05 12:46:25;;;;;;;2.00;1.70;;;15.40;99.90;;;;;;5071995;28;20429;-70
2021/06/05 12:48:54;;;;;;;1.60;1.37;;;15.30;99.90;;;;;;5071825;28;20798;-69
2021/06/05 12:51:27;;;;;;;1.93;1.73;;;15.30;99.90;;;;;;5082917;28;20452;-69
2021/06/05 12:53:59;;;;;;;1.87;1.50;;;15.30;99.90;;;;;;5083222;28;20429;-69
2021/06/05 12:56:37;;;;;;;2.47;1.47;;;15.20;99.90;;;;;;5071446;28;20833;-68
2021/06/05 12:59:07;;;;;;;1.10;1.00;;;15.20;99.90;;;;;;5071663;28;20825;-71
2021/06/05 13:01:38;;;;;;;1.27;1.00;;;15.20;99.90;;;;;;5071800;28;20421;-68
2021/06/05 13:04:08;;;;;;;2.43;1.17;;;15.10;99.90;;;;;;5071650;28;20424;-69
2021/06/05 13:06:36;;;;;;;1.40;1.13;;;15.00;99.90;;;;;;5071929;28;20473;-70
2021/06/05 13:09:26;;;;;;;2.10;1.23;;;14.90;99.90;;;;;;5071624;28;20818;-69
2021/06/05 13:11:56;;;;;;;1.40;1.20;;;14.80;99.90;;;;;;5071731;28;20428;-69
2021/06/05 13:14:33;;;;;;;1.70;1.10;;;14.70;99.90;;;;;;5072146;28;20437;-69